createdAt,value
2018-10-11T00:00:55.632Z,16.87
2018-10-11T00:03:24.874Z,17.20
2018-10-11T00:05:53.599Z,17.03
2018-10-11T00:08:21.962Z,16.40
2018-10-11T00:14:22.212Z,17.63
2018-10-11T00:16:51.365Z,17.20
2018-10-11T00:19:20.368Z,17.27
2018-10-11T00:21:49.384Z,17.57
2018-10-11T00:24:17.964Z,16.90
2018-10-11T00:26:46.867Z,17.87
2018-10-11T00:29:15.799Z,17.37
2018-10-11T00:31:44.779Z,18.00
2018-10-11T00:34:13.554Z,18.60
2018-10-11T00:36:42.202Z,18.53
2018-10-11T00:39:11.083Z,18.47
2018-10-11T00:41:39.497Z,18.37
2018-10-11T00:44:08.358Z,18.07
2018-10-11T00:46:36.873Z,18.87
2018-10-11T00:49:05.803Z,18.53
2018-10-11T00:51:35.136Z,18.77
2018-10-11T00:54:03.813Z,18.27
2018-10-11T00:56:34.848Z,17.90
2018-10-11T00:59:03.479Z,17.80
2018-10-11T01:01:32.265Z,19.30
2018-10-11T01:04:00.690Z,19.40
2018-10-11T01:06:29.072Z,19.70
2018-10-11T01:08:57.430Z,19.87
2018-10-11T01:11:26.326Z,20.97
2018-10-11T01:13:57.547Z,20.30
2018-10-11T01:16:27.270Z,20.03
2018-10-11T01:18:59.056Z,20.40
2018-10-11T01:21:27.699Z,19.47
2018-10-11T01:23:56.313Z,19.53
2018-10-11T01:26:25.358Z,19.60
2018-10-11T01:28:54.245Z,19.53
2018-10-11T01:31:23.611Z,20.23
2018-10-11T01:33:53.657Z,20.80
2018-10-11T01:36:22.198Z,20.77
2018-10-11T01:38:52.256Z,19.47
2018-10-11T01:41:21.082Z,20.50
2018-10-11T01:43:50.446Z,20.50
2018-10-11T01:46:19.095Z,20.00
2018-10-11T01:48:47.495Z,19.00
2018-10-11T01:51:15.837Z,20.17
2018-10-11T01:53:44.236Z,20.97
2018-10-11T01:56:12.773Z,20.63
2018-10-11T01:58:41.265Z,20.50
2018-10-11T02:01:11.199Z,20.90
2018-10-11T02:03:39.580Z,20.90
2018-10-11T02:06:08.548Z,21.20
2018-10-11T02:08:37.168Z,21.27
2018-10-11T02:11:05.859Z,21.43
2018-10-11T02:13:37.032Z,21.97
2018-10-11T02:16:05.860Z,21.90
2018-10-11T02:18:34.838Z,21.10
2018-10-11T02:21:03.428Z,21.77
2018-10-11T02:23:31.947Z,22.20
2018-10-11T02:26:00.358Z,21.83
2018-10-11T02:28:28.816Z,22.07
2018-10-11T02:30:57.221Z,20.63
2018-10-11T02:33:25.628Z,21.33
2018-10-11T02:35:54.497Z,21.07
2018-10-11T02:38:24.089Z,20.10
2018-10-11T02:40:52.477Z,21.50
2018-10-11T02:43:21.888Z,21.77
2018-10-11T02:45:50.314Z,23.23
2018-10-11T02:48:18.657Z,21.10
2018-10-11T02:50:47.114Z,22.27
2018-10-11T02:53:16.353Z,22.50
2018-10-11T02:55:44.958Z,22.60
2018-10-11T02:58:25.747Z,21.33
2018-10-11T03:00:56.802Z,21.93
2018-10-11T03:03:28.641Z,21.27
2018-10-11T03:06:01.386Z,22.43
2018-10-11T03:08:29.995Z,23.30
2018-10-11T03:10:58.933Z,21.93
2018-10-11T03:13:27.543Z,23.20
2018-10-11T03:15:56.241Z,22.70
2018-10-11T03:18:25.892Z,22.73
2018-10-11T03:20:54.664Z,22.60
2018-10-11T03:23:23.184Z,23.03
2018-10-11T03:25:52.247Z,23.30
2018-10-11T03:28:21.157Z,23.90
2018-10-11T03:30:50.290Z,21.63
2018-10-11T03:33:19.841Z,23.20
2018-10-11T03:35:49.991Z,23.47
2018-10-11T03:38:18.563Z,22.43
2018-10-11T03:40:47.008Z,23.53
2018-10-11T03:43:15.345Z,22.27
2018-10-11T03:45:43.708Z,22.00
2018-10-11T03:48:12.170Z,24.20
2018-10-11T03:50:52.646Z,24.23
2018-10-11T03:53:21.782Z,22.90
2018-10-11T03:55:50.318Z,23.80
2018-10-11T03:58:26.364Z,22.23
2018-10-11T04:00:55.366Z,23.87
2018-10-11T04:03:26.251Z,24.10
2018-10-11T04:05:55.917Z,22.37
2018-10-11T04:08:24.762Z,23.23
2018-10-11T04:10:54.156Z,23.10
2018-10-11T04:13:23.299Z,23.60
2018-10-11T04:15:52.520Z,23.73
2018-10-11T04:18:21.573Z,23.50
2018-10-11T04:20:50.664Z,24.23
2018-10-11T04:23:27.101Z,23.00
2018-10-11T04:25:57.055Z,23.70
2018-10-11T04:28:26.530Z,24.67
2018-10-11T04:30:55.760Z,24.63
2018-10-11T04:33:24.385Z,23.13
2018-10-11T04:35:53.430Z,24.00
2018-10-11T04:38:22.335Z,23.60
2018-10-11T04:40:50.963Z,23.10
2018-10-11T04:43:19.895Z,23.63
2018-10-11T04:45:48.258Z,23.53
2018-10-11T04:48:17.063Z,22.97
2018-10-11T04:50:46.134Z,24.93
2018-10-11T04:53:15.391Z,24.80
2018-10-11T04:55:44.908Z,23.60
2018-10-11T04:58:13.521Z,24.63
2018-10-11T05:00:42.428Z,24.93
2018-10-11T05:03:12.929Z,25.57
2018-10-11T05:05:42.577Z,24.67
2018-10-11T05:08:11.540Z,22.73
2018-10-11T05:10:40.256Z,22.97
2018-10-11T05:13:09.303Z,24.20
2018-10-11T05:15:38.128Z,24.27
2018-10-11T05:18:07.377Z,23.83
2018-10-11T05:20:35.959Z,23.47
2018-10-11T05:23:04.770Z,22.77
2018-10-11T05:25:33.791Z,22.57
2018-10-11T05:28:02.159Z,21.60
2018-10-11T05:30:31.296Z,20.53
2018-10-11T05:32:59.787Z,19.07
2018-10-11T05:35:28.507Z,18.23
2018-10-11T05:37:57.054Z,18.07
2018-10-11T05:40:25.620Z,15.63
2018-10-11T05:42:54.301Z,11.37
2018-10-11T05:45:24.161Z,10.23
2018-10-11T05:47:52.695Z,7.57
2018-10-11T05:50:21.411Z,7.03
2018-10-11T05:52:50.222Z,7.53
2018-10-11T05:55:19.204Z,7.30
2018-10-11T05:57:47.985Z,6.27
2018-10-11T06:00:16.761Z,6.17
2018-10-11T06:02:58.111Z,6.47
2018-10-11T06:05:27.420Z,5.60
2018-10-11T06:07:56.373Z,5.97
2018-10-11T06:10:25.770Z,5.47
2018-10-11T06:12:54.389Z,5.43
2018-10-11T06:15:23.398Z,6.00
2018-10-11T06:17:54.076Z,6.70
2018-10-11T06:20:22.990Z,6.60
2018-10-11T06:22:51.866Z,6.60
2018-10-11T06:25:21.587Z,5.93
2018-10-11T06:27:51.646Z,5.20
2018-10-11T06:30:20.267Z,5.20
2018-10-11T06:32:49.458Z,4.87
2018-10-11T06:35:18.566Z,5.03
2018-10-11T06:37:48.247Z,5.10
2018-10-11T06:40:17.676Z,5.83
2018-10-11T06:42:46.868Z,4.80
2018-10-11T06:45:17.267Z,5.37
2018-10-11T06:47:48.877Z,5.77
2018-10-11T06:50:17.388Z,5.67
2018-10-11T06:52:46.368Z,5.60
2018-10-11T06:55:15.091Z,6.53
2018-10-11T06:57:43.764Z,6.57
2018-10-11T07:00:12.498Z,6.70
2018-10-11T07:02:41.071Z,8.00
2018-10-11T07:05:09.891Z,7.00
2018-10-11T07:07:38.620Z,6.87
2018-10-11T07:10:07.360Z,7.07
2018-10-11T07:12:36.096Z,6.53
2018-10-11T07:15:04.780Z,6.67
2018-10-11T07:17:33.341Z,6.77
2018-10-11T07:20:02.023Z,6.30
2018-10-11T07:22:30.874Z,6.83
2018-10-11T07:24:59.251Z,7.20
2018-10-11T07:27:27.731Z,7.03
2018-10-11T07:29:56.449Z,6.83
2018-10-11T07:32:25.351Z,6.70
2018-10-11T07:34:55.213Z,6.93
2018-10-11T07:37:23.751Z,7.17
2018-10-11T07:39:52.878Z,7.57
2018-10-11T07:42:21.410Z,7.77
2018-10-11T07:44:50.273Z,7.80
2018-10-11T07:47:18.855Z,7.90
2018-10-11T07:49:47.339Z,7.77
2018-10-11T07:52:15.912Z,7.20
2018-10-11T07:54:44.542Z,7.87
2018-10-11T07:57:13.410Z,7.30
2018-10-11T07:59:42.541Z,8.70
2018-10-11T08:02:11.426Z,7.43
2018-10-11T08:04:40.393Z,7.37
2018-10-11T08:07:09.165Z,8.27
2018-10-11T08:09:37.782Z,8.40
2018-10-11T08:12:06.972Z,7.80
2018-10-11T08:14:35.562Z,8.37
2018-10-11T08:17:04.727Z,8.37
2018-10-11T08:19:33.146Z,8.47
2018-10-11T08:22:01.539Z,8.67
2018-10-11T08:24:30.267Z,8.90
2018-10-11T08:26:59.040Z,7.77
2018-10-11T08:29:27.643Z,8.70
2018-10-11T08:31:56.397Z,7.97
2018-10-11T08:34:24.888Z,6.57
2018-10-11T08:36:53.888Z,7.93
2018-10-11T08:39:22.268Z,8.77
2018-10-11T08:41:51.157Z,7.70
2018-10-11T08:44:21.372Z,8.00
2018-10-11T08:46:50.040Z,9.07
2018-10-11T08:49:18.763Z,9.30
2018-10-11T08:51:47.207Z,8.87
2018-10-11T08:54:21.279Z,8.47
2018-10-11T08:56:50.611Z,8.43
2018-10-11T08:59:19.487Z,8.60
2018-10-11T09:01:48.224Z,8.07
2018-10-11T09:04:16.917Z,8.77
2018-10-11T09:06:45.391Z,7.63
2018-10-11T09:09:14.252Z,6.93
2018-10-11T09:11:42.729Z,7.57
2018-10-11T09:14:11.129Z,6.60
2018-10-11T09:16:39.597Z,6.47
2018-10-11T09:19:08.435Z,6.03
2018-10-11T09:21:36.947Z,5.90
2018-10-11T09:24:05.586Z,5.20
2018-10-11T09:26:34.043Z,5.10
2018-10-11T09:29:03.563Z,5.23
2018-10-11T09:31:32.208Z,5.50
2018-10-11T09:34:00.742Z,5.03
2018-10-11T09:36:29.480Z,4.83
2018-10-11T09:38:58.396Z,5.30
2018-10-11T09:41:27.175Z,4.47
2018-10-11T09:43:55.660Z,4.40
2018-10-11T09:46:24.211Z,4.90
2018-10-11T09:48:52.822Z,3.83
2018-10-11T09:51:21.441Z,4.23
2018-10-11T09:53:51.097Z,4.10
2018-10-11T09:56:19.549Z,4.10
2018-10-11T09:58:48.220Z,4.00
2018-10-11T10:01:21.916Z,4.50
2018-10-11T10:03:50.474Z,4.40
2018-10-11T10:06:19.223Z,4.23
2018-10-11T10:08:48.102Z,4.10
2018-10-11T10:11:16.697Z,4.30
2018-10-11T10:13:47.001Z,3.60
2018-10-11T10:16:16.379Z,3.27
2018-10-11T10:18:44.868Z,3.30
2018-10-11T10:21:13.400Z,2.83
2018-10-11T10:23:42.027Z,2.70
2018-10-11T10:26:10.504Z,2.47
2018-10-11T10:28:38.902Z,2.43
2018-10-11T10:31:07.732Z,2.30
2018-10-11T10:33:36.765Z,2.30
2018-10-11T10:36:05.262Z,2.03
2018-10-11T10:38:33.926Z,2.17
2018-10-11T10:41:02.515Z,1.90
2018-10-11T10:43:31.123Z,1.83
2018-10-11T10:45:59.747Z,1.97
2018-10-11T10:48:28.449Z,1.93
2018-10-11T10:50:56.959Z,1.93
2018-10-11T10:53:25.620Z,2.10
2018-10-11T10:55:54.974Z,2.10
2018-10-11T10:58:23.771Z,1.90
2018-10-11T11:01:04.103Z,1.63
2018-10-11T11:03:32.741Z,2.07
2018-10-11T11:06:01.341Z,2.10
2018-10-11T11:08:30.352Z,1.83
2018-10-11T11:10:59.121Z,1.67
2018-10-11T11:13:27.781Z,2.03
2018-10-11T11:15:56.218Z,1.73
2018-10-11T11:18:24.718Z,1.90
2018-10-11T11:20:53.566Z,1.70
2018-10-11T11:23:22.193Z,1.60
2018-10-11T11:25:50.622Z,1.70
2018-10-11T11:28:19.151Z,1.63
2018-10-11T11:30:49.416Z,2.07
2018-10-11T11:33:17.989Z,2.17
2018-10-11T11:35:46.521Z,2.60
2018-10-11T11:38:15.117Z,2.73
2018-10-11T11:40:43.665Z,2.50
2018-10-11T11:43:12.157Z,2.50
2018-10-11T11:45:40.678Z,2.93
2018-10-11T11:48:11.211Z,2.87
2018-10-11T11:50:39.970Z,2.90
2018-10-11T11:53:08.632Z,3.33
2018-10-11T11:55:37.668Z,2.90
2018-10-11T11:58:06.455Z,3.50
2018-10-11T12:00:42.489Z,2.90
2018-10-11T12:03:11.570Z,2.85
2018-10-11T12:05:40.336Z,2.67
2018-10-11T12:08:09.111Z,2.45
2018-10-11T12:10:37.702Z,2.40
2018-10-11T12:13:08.277Z,2.50
2018-10-11T12:15:38.471Z,2.05
2018-10-11T12:18:08.147Z,2.30
2018-10-11T12:20:38.229Z,2.20
2018-10-11T12:23:07.715Z,2.20
2018-10-11T12:25:36.776Z,2.10
2018-10-11T12:28:05.451Z,2.10
2018-10-11T12:30:34.008Z,1.72
2018-10-11T12:33:03.053Z,1.80
2018-10-11T12:35:31.973Z,1.55
2018-10-11T12:38:00.863Z,1.77
2018-10-11T12:40:29.990Z,2.33
2018-10-11T12:42:58.437Z,1.82
2018-10-11T12:45:27.184Z,1.77
2018-10-11T12:47:55.476Z,3.27
2018-10-11T12:50:24.809Z,3.58
2018-10-11T12:52:53.193Z,2.85
2018-10-11T12:55:21.989Z,2.90
2018-10-11T12:57:50.581Z,2.40
2018-10-11T13:00:20.132Z,2.30
2018-10-11T13:02:49.279Z,2.47
2018-10-11T13:05:17.742Z,1.98
2018-10-11T13:07:46.591Z,1.82
2018-10-11T13:10:15.264Z,1.90
2018-10-11T13:12:43.986Z,1.92
2018-10-11T13:15:13.084Z,1.67
2018-10-11T13:17:43.646Z,1.52
2018-10-11T13:20:10.633Z,2.00
2018-10-11T13:22:39.217Z,1.75
2018-10-11T13:25:07.795Z,1.82
2018-10-11T13:27:36.263Z,1.60
2018-10-11T13:30:05.261Z,1.60
2018-10-11T13:32:35.200Z,1.50
2018-10-11T13:35:03.717Z,1.62
2018-10-11T13:37:32.568Z,1.42
2018-10-11T13:40:00.934Z,1.40
2018-10-11T13:42:29.521Z,1.40
2018-10-11T13:44:58.262Z,1.37
2018-10-11T13:47:27.264Z,1.80
2018-10-11T13:49:55.978Z,1.67
2018-10-11T13:52:25.104Z,1.40
2018-10-11T13:54:53.972Z,1.82
2018-10-11T13:57:25.121Z,1.10
2018-10-11T13:59:51.471Z,1.40
2018-10-11T14:02:22.891Z,1.45
2018-10-11T14:05:13.616Z,1.40
2018-10-11T14:07:43.656Z,1.40
2018-10-11T14:10:12.941Z,1.32
2018-10-11T14:12:42.604Z,1.52
2018-10-11T14:15:11.944Z,1.50
2018-10-11T14:17:41.361Z,1.30
2018-10-11T14:20:11.080Z,1.30
2018-10-11T14:22:41.225Z,1.57
2018-10-11T14:25:09.980Z,1.67
2018-10-11T14:27:38.559Z,1.60
2018-10-11T14:30:07.016Z,1.55
2018-10-11T14:32:35.672Z,1.40
2018-10-11T14:35:06.236Z,1.60
2018-10-11T14:37:35.908Z,1.45
2018-10-11T14:40:04.816Z,1.42
2018-10-11T14:42:34.233Z,1.50
2018-10-11T14:45:02.711Z,1.40
2018-10-11T14:47:31.376Z,1.57
2018-10-11T14:49:59.889Z,1.40
2018-10-11T14:52:28.474Z,1.50
2018-10-11T14:54:56.952Z,1.47
2018-10-11T14:57:25.463Z,1.50
2018-10-11T14:59:54.434Z,1.67
2018-10-11T15:02:22.915Z,1.63
2018-10-11T15:04:52.271Z,1.33
2018-10-11T15:07:20.915Z,1.70
2018-10-11T15:09:50.136Z,1.30
2018-10-11T15:12:18.561Z,1.30
2018-10-11T15:14:47.343Z,1.70
2018-10-11T15:17:15.912Z,1.53
2018-10-11T15:19:44.891Z,1.50
2018-10-11T15:22:13.769Z,1.67
2018-10-11T15:24:42.734Z,1.60
2018-10-11T15:27:11.344Z,1.33
2018-10-11T15:29:40.767Z,1.57
2018-10-11T15:32:10.054Z,1.80
2018-10-11T15:34:39.534Z,1.20
2018-10-11T15:37:09.315Z,1.40
2018-10-11T15:39:38.325Z,3.53
2018-10-11T15:42:07.196Z,1.60
2018-10-11T15:44:35.731Z,1.33
2018-10-11T15:47:04.895Z,2.00
2018-10-11T15:49:34.153Z,1.50
2018-10-11T15:52:02.754Z,1.50
2018-10-11T15:54:32.243Z,1.50
2018-10-11T15:57:01.756Z,1.30
2018-10-11T15:59:31.068Z,1.50
2018-10-11T16:02:00.187Z,1.93
2018-10-11T16:04:29.550Z,1.90
2018-10-11T16:06:59.208Z,1.80
2018-10-11T16:09:28.523Z,1.43
2018-10-11T16:11:59.201Z,1.53
2018-10-11T16:14:28.815Z,1.57
2018-10-11T16:16:57.481Z,1.63
2018-10-11T16:19:26.624Z,1.23
2018-10-11T16:21:55.466Z,1.57
2018-10-11T16:24:25.049Z,1.30
2018-10-11T16:26:53.997Z,2.20
2018-10-11T16:29:22.888Z,1.63
2018-10-11T16:31:51.949Z,1.53
2018-10-11T16:34:22.757Z,1.93
2018-10-11T16:36:52.262Z,1.70
2018-10-11T16:39:20.780Z,1.50
2018-10-11T16:41:49.774Z,1.50
2018-10-11T16:44:18.855Z,1.50
2018-10-11T16:46:47.588Z,1.90
2018-10-11T16:49:16.715Z,2.27
2018-10-11T16:51:45.685Z,2.03
2018-10-11T16:54:14.943Z,2.10
2018-10-11T16:56:44.090Z,1.80
2018-10-11T16:59:12.864Z,1.90
2018-10-11T17:01:41.803Z,2.00
2018-10-11T17:04:11.309Z,2.00
2018-10-11T17:06:40.419Z,1.93
2018-10-11T17:09:11.265Z,1.80
2018-10-11T17:11:40.667Z,2.27
2018-10-11T17:14:10.154Z,2.30
2018-10-11T17:16:39.836Z,1.90
2018-10-11T17:19:08.823Z,2.20
2018-10-11T17:21:38.079Z,2.30
2018-10-11T17:24:06.984Z,2.27
2018-10-11T17:26:35.886Z,2.00
2018-10-11T17:29:04.462Z,2.37
2018-10-11T17:31:34.114Z,2.27
2018-10-11T17:34:03.615Z,2.00
2018-10-11T17:36:32.836Z,2.30
2018-10-11T17:39:02.457Z,2.43
2018-10-11T17:41:31.613Z,2.43
2018-10-11T17:44:00.371Z,2.03
2018-10-11T17:46:29.050Z,2.07
2018-10-11T17:48:58.468Z,2.37
2018-10-11T17:51:27.496Z,2.33
2018-10-11T17:53:56.671Z,2.33
2018-10-11T17:56:25.591Z,2.27
2018-10-11T17:58:56.277Z,2.30
2018-10-11T18:01:26.061Z,2.83
2018-10-11T18:03:57.261Z,3.10
2018-10-11T18:06:38.028Z,2.80
2018-10-11T18:09:23.595Z,2.20
2018-10-11T18:11:53.011Z,2.47
2018-10-11T18:14:21.843Z,2.37
2018-10-11T18:16:50.772Z,2.73
2018-10-11T18:19:19.715Z,2.33
2018-10-11T18:21:49.190Z,2.30
2018-10-11T18:24:18.451Z,2.40
2018-10-11T18:26:47.037Z,2.30
2018-10-11T18:29:16.162Z,2.60
2018-10-11T18:31:44.839Z,2.23
2018-10-11T18:34:13.542Z,2.27
2018-10-11T18:36:42.125Z,2.63
2018-10-11T18:39:13.025Z,2.33
2018-10-11T18:41:42.452Z,2.70
2018-10-11T18:44:11.677Z,2.47
2018-10-11T18:46:40.448Z,3.40
2018-10-11T18:49:09.498Z,2.57
2018-10-11T18:51:37.991Z,1.90
2018-10-11T18:54:06.689Z,2.27
2018-10-11T18:56:36.192Z,2.50
2018-10-11T18:59:06.828Z,2.47
2018-10-11T19:01:35.684Z,2.50
2018-10-11T19:04:04.967Z,2.53
2018-10-11T19:06:33.867Z,2.63
2018-10-11T19:09:02.198Z,2.57
2018-10-11T19:11:30.590Z,2.33
2018-10-11T19:13:59.038Z,2.43
2018-10-11T19:16:28.870Z,2.50
2018-10-11T19:18:57.855Z,2.37
2018-10-11T19:21:26.736Z,3.00
2018-10-11T19:23:55.712Z,2.57
2018-10-11T19:26:25.161Z,2.70
2018-10-11T19:28:54.482Z,2.50
2018-10-11T19:31:23.011Z,2.30
2018-10-11T19:33:51.608Z,2.30
2018-10-11T19:36:20.224Z,2.70
2018-10-11T19:38:49.064Z,2.47
2018-10-11T19:41:17.753Z,2.60
2018-10-11T19:43:46.475Z,2.70
2018-10-11T19:46:18.518Z,2.80
2018-10-11T19:48:52.012Z,2.70
2018-10-11T19:51:21.310Z,3.03
2018-10-11T19:53:54.523Z,3.00
2018-10-11T19:56:27.355Z,2.70
2018-10-11T19:58:57.268Z,3.00
2018-10-11T20:01:30.067Z,2.60
2018-10-11T20:04:01.559Z,2.50
2018-10-11T20:06:32.509Z,2.73
2018-10-11T20:09:06.774Z,3.03
2018-10-11T20:11:38.396Z,2.90
2018-10-11T20:14:07.473Z,2.60
2018-10-11T20:16:36.139Z,2.90
2018-10-11T20:19:04.796Z,3.33
2018-10-11T20:21:33.187Z,3.03
2018-10-11T20:24:02.189Z,2.80
2018-10-11T20:26:31.087Z,2.80
2018-10-11T20:29:00.512Z,2.67
2018-10-11T20:31:29.398Z,3.00
2018-10-11T20:33:58.327Z,2.83
2018-10-11T20:36:27.790Z,2.60
2018-10-11T20:38:56.534Z,3.00
2018-10-11T20:41:25.222Z,2.83
2018-10-11T20:43:53.914Z,2.70
2018-10-11T20:46:22.310Z,2.77
2018-10-11T20:48:51.051Z,2.93
2018-10-11T20:51:19.588Z,2.90
2018-10-11T20:53:49.234Z,2.90
2018-10-11T20:56:17.737Z,2.80
2018-10-11T20:58:46.671Z,2.57
2018-10-11T21:01:15.341Z,2.87
2018-10-11T21:03:43.876Z,2.60
2018-10-11T21:06:12.991Z,2.50
2018-10-11T21:08:41.766Z,2.73
2018-10-11T21:11:10.344Z,2.50
2018-10-11T21:13:38.822Z,2.70
2018-10-11T21:16:07.724Z,2.60
2018-10-11T21:18:36.417Z,2.90
2018-10-11T21:21:05.660Z,2.77
2018-10-11T21:23:34.814Z,2.60
2018-10-11T21:26:05.594Z,2.90
2018-10-11T21:28:35.160Z,2.77
2018-10-11T21:31:03.942Z,3.20
2018-10-11T21:33:33.435Z,3.23
2018-10-11T21:36:03.193Z,2.77
2018-10-11T21:38:31.776Z,3.07
2018-10-11T21:41:00.727Z,2.67
2018-10-11T21:43:30.125Z,3.03
2018-10-11T21:45:58.953Z,3.10
2018-10-11T21:48:28.409Z,3.33
2018-10-11T21:50:57.157Z,3.30
2018-10-11T21:53:26.075Z,3.67
2018-10-11T21:55:55.056Z,3.77
2018-10-11T21:58:24.127Z,3.43
2018-10-11T22:00:57.866Z,3.57
2018-10-11T22:03:31.013Z,3.07
2018-10-11T22:05:59.911Z,3.50
2018-10-11T22:08:28.651Z,3.83
2018-10-11T22:10:57.672Z,3.33
2018-10-11T22:13:26.997Z,3.60
2018-10-11T22:15:55.621Z,3.53
2018-10-11T22:18:24.457Z,3.53
2018-10-11T22:20:53.167Z,3.53
2018-10-11T22:23:22.038Z,3.60
2018-10-11T22:25:50.914Z,4.30
2018-10-11T22:28:19.391Z,3.73
2018-10-11T22:30:47.987Z,3.77
2018-10-11T22:33:16.375Z,3.60
2018-10-11T22:35:44.804Z,3.47
2018-10-11T22:38:13.657Z,4.57
2018-10-11T22:40:42.227Z,4.13
2018-10-11T22:43:16.822Z,3.93
2018-10-11T22:45:45.920Z,3.87
2018-10-11T22:48:14.330Z,3.53
2018-10-11T22:50:42.919Z,3.80
2018-10-11T22:53:11.299Z,4.03
2018-10-11T22:55:45.465Z,3.73
2018-10-11T22:58:14.449Z,4.90
2018-10-11T23:00:43.055Z,3.40
2018-10-11T23:03:11.608Z,3.33
2018-10-11T23:05:40.374Z,2.50
2018-10-11T23:08:08.743Z,2.50
2018-10-11T23:10:37.497Z,3.00
2018-10-11T23:13:12.784Z,2.47
2018-10-11T23:15:41.323Z,2.73
2018-10-11T23:18:10.272Z,0.13
2018-10-11T23:20:38.944Z,0.00
2018-10-11T23:23:08.000Z,0.13
2018-10-11T23:25:36.673Z,0.00
2018-10-11T23:28:05.532Z,0.30
2018-10-11T23:30:34.533Z,0.30
2018-10-11T23:33:03.021Z,0.00
2018-10-11T23:35:31.945Z,1.13
2018-10-11T23:38:00.487Z,0.10
2018-10-11T23:40:29.013Z,0.20
2018-10-11T23:42:57.431Z,0.00
2018-10-11T23:45:26.132Z,0.40
2018-10-11T23:47:55.433Z,0.00
2018-10-11T23:50:24.368Z,1.23
2018-10-11T23:52:52.873Z,0.00
2018-10-11T23:55:21.932Z,0.37
2018-10-11T23:57:51.052Z,0.07
